sensor_id;sensor_type;location;lat;lon;timestamp;pressure;altitude;pressure_sealevel;temperature;humidity
69223;BME280;56514;51.816;-0.026;2023-01-23T00:02:08;103103.00;;;-2.05;70.27
69223;BME280;56514;51.816;-0.026;2023-01-23T00:05:18;103106.38;;;-2.06;70.29
69223;BME280;56514;51.816;-0.026;2023-01-23T00:08:24;103095.22;;;-2.05;70.77
69223;BME280;56514;51.816;-0.026;2023-01-23T00:11:29;103100.41;;;-2.05;70.62
69223;BME280;56514;51.816;-0.026;2023-01-23T00:14:39;103095.19;;;-2.06;71.01
69223;BME280;56514;51.816;-0.026;2023-01-23T00:17:49;103090.81;;;-2.09;71.57
69223;BME280;56514;51.816;-0.026;2023-01-23T00:21:01;103085.56;;;-2.12;71.34
69223;BME280;56514;51.816;-0.026;2023-01-23T00:24:11;103082.09;;;-2.14;71.32
69223;BME280;56514;51.816;-0.026;2023-01-23T00:26:56;103078.59;;;-2.16;71.13
69223;BME280;56514;51.816;-0.026;2023-01-23T00:29:41;103074.25;;;-2.18;71.22
69223;BME280;56514;51.816;-0.026;2023-01-23T00:32:27;103082.81;;;-2.19;71.20
69223;BME280;56514;51.816;-0.026;2023-01-23T00:35:12;103076.81;;;-2.20;71.52
69223;BME280;56514;51.816;-0.026;2023-01-23T00:37:57;103081.94;;;-2.21;72.49
69223;BME280;56514;51.816;-0.026;2023-01-23T00:40:42;103096.56;;;-2.22;72.47
69223;BME280;56514;51.816;-0.026;2023-01-23T00:43:29;103097.34;;;-2.26;72.37
69223;BME280;56514;51.816;-0.026;2023-01-23T00:46:14;103099.84;;;-2.30;72.70
69223;BME280;56514;51.816;-0.026;2023-01-23T00:48:59;103099.00;;;-2.29;71.95
69223;BME280;56514;51.816;-0.026;2023-01-23T00:51:45;103101.50;;;-2.32;72.28
69223;BME280;56514;51.816;-0.026;2023-01-23T00:54:30;103106.56;;;-2.37;72.12
69223;BME280;56514;51.816;-0.026;2023-01-23T00:57:15;103105.59;;;-2.42;71.36
69223;BME280;56514;51.816;-0.026;2023-01-23T00:59:59;103102.09;;;-2.44;72.22
69223;BME280;56514;51.816;-0.026;2023-01-23T01:02:44;103101.19;;;-2.46;71.92
69223;BME280;56514;51.816;-0.026;2023-01-23T01:05:29;103096.84;;;-2.47;71.74
69223;BME280;56514;51.816;-0.026;2023-01-23T01:08:14;103085.56;;;-2.52;71.32
69223;BME280;56514;51.816;-0.026;2023-01-23T01:10:59;103094.91;;;-2.57;71.27
69223;BME280;56514;51.816;-0.026;2023-01-23T01:13:45;103106.03;;;-2.61;71.56
69223;BME280;56514;51.816;-0.026;2023-01-23T01:16:30;103109.38;;;-2.63;71.57
69223;BME280;56514;51.816;-0.026;2023-01-23T01:19:16;103102.47;;;-2.64;72.00
69223;BME280;56514;51.816;-0.026;2023-01-23T01:22:02;103107.59;;;-2.66;71.82
69223;BME280;56514;51.816;-0.026;2023-01-23T01:24:47;103103.25;;;-2.68;71.57
69223;BME280;56514;51.816;-0.026;2023-01-23T01:27:32;103094.56;;;-2.72;71.33
69223;BME280;56514;51.816;-0.026;2023-01-23T01:30:17;103091.84;;;-2.76;71.28
69223;BME280;56514;51.816;-0.026;2023-01-23T01:33:05;103085.75;;;-2.80;71.84
69223;BME280;56514;51.816;-0.026;2023-01-23T01:35:50;103082.22;;;-2.82;71.10
69223;BME280;56514;51.816;-0.026;2023-01-23T01:38:35;103091.63;;;-2.85;71.30
69223;BME280;56514;51.816;-0.026;2023-01-23T01:41:20;103092.38;;;-2.89;71.68
69223;BME280;56514;51.816;-0.026;2023-01-23T01:44:05;103092.28;;;-2.94;71.64
69223;BME280;56514;51.816;-0.026;2023-01-23T01:46:50;103093.94;;;-2.97;71.73
69223;BME280;56514;51.816;-0.026;2023-01-23T01:49:35;103087.81;;;-3.01;71.35
69223;BME280;56514;51.816;-0.026;2023-01-23T01:52:22;103094.66;;;-3.01;71.42
69223;BME280;56514;51.816;-0.026;2023-01-23T01:55:07;103101.56;;;-3.02;71.59
69223;BME280;56514;51.816;-0.026;2023-01-23T01:57:52;103098.91;;;-3.05;71.71
69223;BME280;56514;51.816;-0.026;2023-01-23T02:00:37;103097.16;;;-3.04;72.15
69223;BME280;56514;51.816;-0.026;2023-01-23T02:03:23;103099.75;;;-3.04;72.30
69223;BME280;56514;51.816;-0.026;2023-01-23T02:06:09;103091.09;;;-3.08;72.47
69223;BME280;56514;51.816;-0.026;2023-01-23T02:09:04;103091.03;;;-3.09;72.44
69223;BME280;56514;51.816;-0.026;2023-01-23T02:11:52;103092.78;;;-3.08;72.24
69223;BME280;56514;51.816;-0.026;2023-01-23T02:14:37;103097.81;;;-3.13;72.50
69223;BME280;56514;51.816;-0.026;2023-01-23T02:17:23;103103.78;;;-3.15;72.21
69223;BME280;56514;51.816;-0.026;2023-01-23T02:20:18;103110.63;;;-3.17;72.46
69223;BME280;56514;51.816;-0.026;2023-01-23T02:25:58;103108.69;;;-3.24;71.97
69223;BME280;56514;51.816;-0.026;2023-01-23T02:28:49;103111.16;;;-3.29;72.55
69223;BME280;56514;51.816;-0.026;2023-01-23T02:31:39;103117.88;;;-3.35;72.08
69223;BME280;56514;51.816;-0.026;2023-01-23T02:34:26;103127.22;;;-3.39;71.84
69223;BME280;56514;51.816;-0.026;2023-01-23T02:37:12;103124.53;;;-3.43;72.10
69223;BME280;56514;51.816;-0.026;2023-01-23T02:39:58;103132.22;;;-3.45;72.54
69223;BME280;56514;51.816;-0.026;2023-01-23T02:42:44;103137.41;;;-3.45;72.54
69223;BME280;56514;51.816;-0.026;2023-01-23T02:45:31;103137.41;;;-3.45;72.69
69223;BME280;56514;51.816;-0.026;2023-01-23T02:48:16;103133.84;;;-3.48;72.04
69223;BME280;56514;51.816;-0.026;2023-01-23T02:51:05;103144.13;;;-3.50;72.53
69223;BME280;56514;51.816;-0.026;2023-01-23T02:53:51;103135.44;;;-3.53;72.12
69223;BME280;56514;51.816;-0.026;2023-01-23T02:56:36;103148.44;;;-3.50;72.53
69223;BME280;56514;51.816;-0.026;2023-01-23T02:59:20;103151.78;;;-3.53;72.30
69223;BME280;56514;51.816;-0.026;2023-01-23T03:02:25;103149.13;;;-3.56;72.11
69223;BME280;56514;51.816;-0.026;2023-01-23T03:05:11;103151.66;;;-3.58;72.09
69223;BME280;56514;51.816;-0.026;2023-01-23T03:07:56;103158.47;;;-3.60;72.41
69223;BME280;56514;51.816;-0.026;2023-01-23T03:10:41;103166.19;;;-3.60;72.06
69223;BME280;56514;51.816;-0.026;2023-01-23T03:13:26;103160.09;;;-3.63;71.50
69223;BME280;56514;51.816;-0.026;2023-01-23T03:16:13;103159.19;;;-3.65;72.07
69223;BME280;56514;51.816;-0.026;2023-01-23T03:18:58;103163.44;;;-3.66;72.03
69223;BME280;56514;51.816;-0.026;2023-01-23T03:21:49;103169.44;;;-3.67;72.07
69223;BME280;56514;51.816;-0.026;2023-01-23T03:24:34;103166.88;;;-3.67;72.10
69223;BME280;56514;51.816;-0.026;2023-01-23T03:27:19;103169.41;;;-3.68;72.10
69223;BME280;56514;51.816;-0.026;2023-01-23T03:30:05;103159.88;;;-3.71;71.76
69223;BME280;56514;51.816;-0.026;2023-01-23T03:33:05;103165.00;;;-3.72;72.23
69223;BME280;56514;51.816;-0.026;2023-01-23T03:35:50;103166.69;;;-3.73;71.98
69223;BME280;56514;51.816;-0.026;2023-01-23T03:38:35;103169.22;;;-3.74;72.02
69223;BME280;56514;51.816;-0.026;2023-01-23T03:41:20;103169.13;;;-3.77;71.94
69223;BME280;56514;51.816;-0.026;2023-01-23T03:44:11;103172.47;;;-3.81;72.04
69223;BME280;56514;51.816;-0.026;2023-01-23T03:46:56;103174.22;;;-3.80;71.92
69223;BME280;56514;51.816;-0.026;2023-01-23T03:49:42;103176.78;;;-3.80;72.26
69223;BME280;56514;51.816;-0.026;2023-01-23T03:52:26;103177.63;;;-3.81;72.61
69223;BME280;56514;51.816;-0.026;2023-01-23T03:55:11;103171.59;;;-3.82;72.29
69223;BME280;56514;51.816;-0.026;2023-01-23T03:57:56;103179.28;;;-3.83;72.53
69223;BME280;56514;51.816;-0.026;2023-01-23T04:00:40;103175.78;;;-3.85;72.03
69223;BME280;56514;51.816;-0.026;2023-01-23T04:03:25;103173.16;;;-3.87;72.63
69223;BME280;56514;51.816;-0.026;2023-01-23T04:06:10;103174.03;;;-3.86;73.12
69223;BME280;56514;51.816;-0.026;2023-01-23T04:08:55;103169.81;;;-3.84;73.12
69223;BME280;56514;51.816;-0.026;2023-01-23T04:11:42;103174.13;;;-3.83;73.08
69223;BME280;56514;51.816;-0.026;2023-01-23T04:14:27;103174.91;;;-3.86;72.26
69223;BME280;56514;51.816;-0.026;2023-01-23T04:17:20;103173.97;;;-3.88;72.13
69223;BME280;56514;51.816;-0.026;2023-01-23T04:20:05;103169.84;;;-3.83;72.26
69223;BME280;56514;51.816;-0.026;2023-01-23T04:22:50;103166.44;;;-3.82;72.76
69223;BME280;56514;51.816;-0.026;2023-01-23T04:25:35;103165.66;;;-3.78;72.47
69223;BME280;56514;51.816;-0.026;2023-01-23T04:28:20;103157.19;;;-3.75;72.36
69223;BME280;56514;51.816;-0.026;2023-01-23T04:31:05;103159.72;;;-3.77;73.07
69223;BME280;56514;51.816;-0.026;2023-01-23T04:33:52;103154.56;;;-3.77;72.93
69223;BME280;56514;51.816;-0.026;2023-01-23T04:36:37;103163.13;;;-3.76;72.51
69223;BME280;56514;51.816;-0.026;2023-01-23T04:39:22;103154.50;;;-3.78;72.54
69223;BME280;56514;51.816;-0.026;2023-01-23T04:42:08;103160.56;;;-3.76;72.91
69223;BME280;56514;51.816;-0.026;2023-01-23T04:44:53;103160.56;;;-3.76;72.13
69223;BME280;56514;51.816;-0.026;2023-01-23T04:47:38;103163.09;;;-3.78;73.02
69223;BME280;56514;51.816;-0.026;2023-01-23T04:50:22;103170.78;;;-3.79;72.56
69223;BME280;56514;51.816;-0.026;2023-01-23T04:53:08;103162.91;;;-3.84;71.80
69223;BME280;56514;51.816;-0.026;2023-01-23T04:55:53;103170.59;;;-3.85;72.42
69223;BME280;56514;51.816;-0.026;2023-01-23T04:58:38;103164.59;;;-3.86;72.61
69223;BME280;56514;51.816;-0.026;2023-01-23T05:01:23;103169.66;;;-3.89;71.91
69223;BME280;56514;51.816;-0.026;2023-01-23T05:04:08;103169.63;;;-3.90;72.40
69223;BME280;56514;51.816;-0.026;2023-01-23T05:06:53;103172.13;;;-3.93;71.79
69223;BME280;56514;51.816;-0.026;2023-01-23T05:09:38;103172.06;;;-3.95;71.52
69223;BME280;56514;51.816;-0.026;2023-01-23T05:12:23;103172.88;;;-3.96;72.34
69223;BME280;56514;51.816;-0.026;2023-01-23T05:15:09;103170.34;;;-3.94;72.35
69223;BME280;56514;51.816;-0.026;2023-01-23T05:17:54;103169.53;;;-3.93;72.13
69223;BME280;56514;51.816;-0.026;2023-01-23T05:20:39;103167.81;;;-3.93;72.13
69223;BME280;56514;51.816;-0.026;2023-01-23T05:23:24;103163.44;;;-3.95;72.57
69223;BME280;56514;51.816;-0.026;2023-01-23T05:26:09;103165.13;;;-3.96;72.18
69223;BME280;56514;51.816;-0.026;2023-01-23T05:28:54;103168.56;;;-3.97;72.37
69223;BME280;56514;51.816;-0.026;2023-01-23T05:31:39;103163.25;;;-4.01;72.12
69223;BME280;56514;51.816;-0.026;2023-01-23T05:34:24;103161.44;;;-4.04;72.03
69223;BME280;56514;51.816;-0.026;2023-01-23T05:37:09;103157.94;;;-4.07;71.87
69223;BME280;56514;51.816;-0.026;2023-01-23T05:39:55;103158.69;;;-4.10;71.65
69223;BME280;56514;51.816;-0.026;2023-01-23T05:42:40;103162.16;;;-4.09;72.20
69223;BME280;56514;51.816;-0.026;2023-01-23T05:45:25;103160.41;;;-4.10;72.01
69223;BME280;56514;51.816;-0.026;2023-01-23T05:48:10;103158.56;;;-4.14;71.72
69223;BME280;56514;51.816;-0.026;2023-01-23T05:50:55;103159.38;;;-4.15;72.20
69223;BME280;56514;51.816;-0.026;2023-01-23T05:53:40;103158.47;;;-4.17;71.98
69223;BME280;56514;51.816;-0.026;2023-01-23T05:56:26;103164.44;;;-4.18;71.65
69223;BME280;56514;51.816;-0.026;2023-01-23T05:59:11;103160.94;;;-4.20;72.12
69223;BME280;56514;51.816;-0.026;2023-01-23T06:01:56;103166.97;;;-4.20;71.64
69223;BME280;56514;51.816;-0.026;2023-01-23T06:04:40;103165.25;;;-4.21;71.50
69223;BME280;56514;51.816;-0.026;2023-01-23T06:07:25;103166.94;;;-4.21;72.25
69223;BME280;56514;51.816;-0.026;2023-01-23T06:10:11;103172.09;;;-4.21;72.07
69223;BME280;56514;51.816;-0.026;2023-01-23T06:12:56;103164.34;;;-4.21;72.41
69223;BME280;56514;51.816;-0.026;2023-01-23T06:15:41;103167.81;;;-4.21;71.96
69223;BME280;56514;51.816;-0.026;2023-01-23T06:18:26;103165.25;;;-4.21;71.80
69223;BME280;56514;51.816;-0.026;2023-01-23T06:21:11;103169.50;;;-4.21;72.16
69223;BME280;56514;51.816;-0.026;2023-01-23T06:23:58;103173.72;;;-4.23;71.79
69223;BME280;56514;51.816;-0.026;2023-01-23T06:26:43;103176.25;;;-4.25;71.16
69223;BME280;56514;51.816;-0.026;2023-01-23T06:29:29;103187.41;;;-4.26;71.54
69223;BME280;56514;51.816;-0.026;2023-01-23T06:32:14;103183.94;;;-4.26;71.19
69223;BME280;56514;51.816;-0.026;2023-01-23T06:34:59;103178.75;;;-4.28;71.46
69223;BME280;56514;51.816;-0.026;2023-01-23T06:37:46;103184.00;;;-4.25;71.66
69223;BME280;56514;51.816;-0.026;2023-01-23T06:40:30;103196.88;;;-4.25;71.71
69223;BME280;56514;51.816;-0.026;2023-01-23T06:43:16;103198.59;;;-4.25;72.03
69223;BME280;56514;51.816;-0.026;2023-01-23T06:46:02;103196.06;;;-4.24;72.15
69223;BME280;56514;51.816;-0.026;2023-01-23T06:48:47;103196.03;;;-4.25;71.65
69223;BME280;56514;51.816;-0.026;2023-01-23T06:51:32;103202.81;;;-4.27;72.21
69223;BME280;56514;51.816;-0.026;2023-01-23T06:54:20;103201.09;;;-4.28;72.00
69223;BME280;56514;51.816;-0.026;2023-01-23T06:57:05;103205.28;;;-4.30;72.29
69223;BME280;56514;51.816;-0.026;2023-01-23T06:59:50;103202.66;;;-4.32;71.65
69223;BME280;56514;51.816;-0.026;2023-01-23T07:02:36;103197.53;;;-4.32;71.76
69223;BME280;56514;51.816;-0.026;2023-01-23T07:05:22;103195.84;;;-4.31;71.86
69223;BME280;56514;51.816;-0.026;2023-01-23T07:08:07;103200.94;;;-4.33;71.86
69223;BME280;56514;51.816;-0.026;2023-01-23T07:10:52;103201.78;;;-4.32;71.56
69223;BME280;56514;51.816;-0.026;2023-01-23T07:13:37;103211.09;;;-4.36;71.30
69223;BME280;56514;51.816;-0.026;2023-01-23T07:16:22;103205.16;;;-4.35;71.92
69223;BME280;56514;51.816;-0.026;2023-01-23T07:19:08;103203.47;;;-4.34;72.11
69223;BME280;56514;51.816;-0.026;2023-01-23T07:21:54;103205.16;;;-4.35;72.30
69223;BME280;56514;51.816;-0.026;2023-01-23T07:24:38;103212.00;;;-4.35;72.17
69223;BME280;56514;51.816;-0.026;2023-01-23T07:27:23;103218.78;;;-4.37;71.75
69223;BME280;56514;51.816;-0.026;2023-01-23T07:30:09;103226.41;;;-4.40;71.92
69223;BME280;56514;51.816;-0.026;2023-01-23T07:32:53;103219.53;;;-4.41;71.38
69223;BME280;56514;51.816;-0.026;2023-01-23T07:35:39;103217.84;;;-4.41;72.01
69223;BME280;56514;51.816;-0.026;2023-01-23T07:38:24;103214.44;;;-4.40;71.77
69223;BME280;56514;51.816;-0.026;2023-01-23T07:41:09;103206.75;;;-4.38;71.87
69223;BME280;56514;51.816;-0.026;2023-01-23T07:43:54;103215.41;;;-4.36;72.11
69223;BME280;56514;51.816;-0.026;2023-01-23T07:46:38;103215.41;;;-4.36;72.16
69223;BME280;56514;51.816;-0.026;2023-01-23T07:49:23;103213.75;;;-4.34;71.94
69223;BME280;56514;51.816;-0.026;2023-01-23T07:52:08;103214.66;;;-4.32;71.58
69223;BME280;56514;51.816;-0.026;2023-01-23T07:54:53;103210.44;;;-4.30;71.96
69223;BME280;56514;51.816;-0.026;2023-01-23T07:57:38;103214.81;;;-4.28;72.03
69223;BME280;56514;51.816;-0.026;2023-01-23T08:00:23;103215.81;;;-4.24;71.46
69223;BME280;56514;51.816;-0.026;2023-01-23T08:03:08;103214.19;;;-4.21;71.59
69223;BME280;56514;51.816;-0.026;2023-01-23T08:05:53;103210.03;;;-4.16;71.47
69223;BME280;56514;51.816;-0.026;2023-01-23T08:08:39;103199.94;;;-4.10;71.59
69223;BME280;56514;51.816;-0.026;2023-01-23T08:11:24;103207.91;;;-4.02;71.93
69223;BME280;56514;51.816;-0.026;2023-01-23T08:14:10;103208.06;;;-3.96;72.02
69223;BME280;56514;51.816;-0.026;2023-01-23T08:16:55;103205.75;;;-3.89;71.29
69223;BME280;56514;51.816;-0.026;2023-01-23T08:19:40;103210.31;;;-3.80;71.22
69223;BME280;56514;51.816;-0.026;2023-01-23T08:22:25;103201.97;;;-3.72;71.29
69223;BME280;56514;51.816;-0.026;2023-01-23T08:25:10;103204.88;;;-3.60;71.39
69223;BME280;56514;51.816;-0.026;2023-01-23T08:27:55;103199.22;;;-3.48;71.06
69223;BME280;56514;51.816;-0.026;2023-01-23T08:30:41;103205.63;;;-3.35;70.93
69223;BME280;56514;51.816;-0.026;2023-01-23T08:33:26;103201.66;;;-3.23;71.26
69223;BME280;56514;51.816;-0.026;2023-01-23T08:36:14;103208.91;;;-3.10;70.79
69223;BME280;56514;51.816;-0.026;2023-01-23T08:38:59;103212.66;;;-2.99;70.48
69223;BME280;56514;51.816;-0.026;2023-01-23T08:41:43;103213.84;;;-2.86;70.33
69223;BME280;56514;51.816;-0.026;2023-01-23T08:44:28;103220.13;;;-2.77;70.56
69223;BME280;56514;51.816;-0.026;2023-01-23T08:47:15;103206.63;;;-2.67;70.13
69223;BME280;56514;51.816;-0.026;2023-01-23T08:49:59;103215.28;;;-2.65;69.54
69223;BME280;56514;51.816;-0.026;2023-01-23T08:52:44;103215.44;;;-2.59;69.73
69223;BME280;56514;51.816;-0.026;2023-01-23T08:55:29;103206.94;;;-2.55;69.76
69223;BME280;56514;51.816;-0.026;2023-01-23T08:58:16;103213.91;;;-2.51;69.86
69223;BME280;56514;51.816;-0.026;2023-01-23T09:01:25;103218.31;;;-2.47;69.61
69223;BME280;56514;51.816;-0.026;2023-01-23T09:04:10;103225.41;;;-2.40;69.70
69223;BME280;56514;51.816;-0.026;2023-01-23T09:06:55;103232.50;;;-2.31;70.32
69223;BME280;56514;51.816;-0.026;2023-01-23T09:09:40;103227.66;;;-2.18;70.04
69223;BME280;56514;51.816;-0.026;2023-01-23T09:12:25;103240.16;;;-2.00;69.31
69223;BME280;56514;51.816;-0.026;2023-01-23T09:15:10;103248.09;;;-1.93;69.32
69223;BME280;56514;51.816;-0.026;2023-01-23T09:17:55;103249.97;;;-1.86;69.48
69223;BME280;56514;51.816;-0.026;2023-01-23T09:20:40;103245.78;;;-1.81;70.28
69223;BME280;56514;51.816;-0.026;2023-01-23T09:23:25;103246.13;;;-1.65;70.21
69223;BME280;56514;51.816;-0.026;2023-01-23T09:26:11;103247.22;;;-1.54;70.14
69223;BME280;56514;51.816;-0.026;2023-01-23T09:28:56;103246.50;;;-1.47;70.23
69223;BME280;56514;51.816;-0.026;2023-01-23T09:31:41;103256.25;;;-1.36;70.42
69223;BME280;56514;51.816;-0.026;2023-01-23T09:34:27;103258.25;;;-1.23;70.28
69223;BME280;56514;51.816;-0.026;2023-01-23T09:37:14;103260.25;;;-1.11;70.95
69223;BME280;56514;51.816;-0.026;2023-01-23T09:39:58;103249.34;;;-0.94;71.07
69223;BME280;56514;51.816;-0.026;2023-01-23T09:42:44;103254.09;;;-0.72;71.18
69223;BME280;56514;51.816;-0.026;2023-01-23T09:45:31;103264.09;;;-0.44;70.36
69223;BME280;56514;51.816;-0.026;2023-01-23T09:48:43;103262.75;;;-0.22;70.58
69223;BME280;56514;51.816;-0.026;2023-01-23T09:52:04;103270.94;;;0.03;69.86
69223;BME280;56514;51.816;-0.026;2023-01-23T09:54:56;103272.06;;;0.21;69.87
69223;BME280;56514;51.816;-0.026;2023-01-23T09:57:52;103271.44;;;0.37;70.12
69223;BME280;56514;51.816;-0.026;2023-01-23T10:00:39;103274.28;;;0.53;69.54
69223;BME280;56514;51.816;-0.026;2023-01-23T10:03:28;103272.81;;;0.75;70.11
69223;BME280;56514;51.816;-0.026;2023-01-23T10:06:24;103273.06;;;0.93;70.00
69223;BME280;56514;51.816;-0.026;2023-01-23T10:10:13;103277.59;;;1.10;69.53
69223;BME280;56514;51.816;-0.026;2023-01-23T10:13:07;103277.00;;;1.32;69.85
69223;BME280;56514;51.816;-0.026;2023-01-23T10:25:29;103287.22;;;2.04;70.62
69223;BME280;56514;51.816;-0.026;2023-01-23T10:28:34;103290.78;;;2.23;70.30
69223;BME280;56514;51.816;-0.026;2023-01-23T10:31:29;103290.03;;;2.34;70.45
69223;BME280;56514;51.816;-0.026;2023-01-23T10:37:17;103297.13;;;2.64;69.81
69223;BME280;56514;51.816;-0.026;2023-01-23T10:40:17;103290.25;;;2.79;69.98
69223;BME280;56514;51.816;-0.026;2023-01-23T10:43:26;103281.66;;;2.95;69.18
69223;BME280;56514;51.816;-0.026;2023-01-23T10:46:17;103279.94;;;3.02;69.29
69223;BME280;56514;51.816;-0.026;2023-01-23T10:49:04;103277.31;;;3.02;68.72
69223;BME280;56514;51.816;-0.026;2023-01-23T10:51:49;103272.97;;;2.99;68.27
69223;BME280;56514;51.816;-0.026;2023-01-23T10:54:44;103279.06;;;2.97;68.46
69223;BME280;56514;51.816;-0.026;2023-01-23T10:57:42;103282.50;;;2.96;68.47
69223;BME280;56514;51.816;-0.026;2023-01-23T11:06:16;103277.34;;;3.12;68.36
69223;BME280;56514;51.816;-0.026;2023-01-23T11:09:03;103272.19;;;3.17;68.65
69223;BME280;56514;51.816;-0.026;2023-01-23T11:12:02;103260.00;;;3.22;68.42
69223;BME280;56514;51.816;-0.026;2023-01-23T11:14:48;103250.47;;;3.28;68.70
69223;BME280;56514;51.816;-0.026;2023-01-23T11:17:33;103247.00;;;3.38;68.55
69223;BME280;56514;51.816;-0.026;2023-01-23T11:20:22;103244.41;;;3.49;68.55
69223;BME280;56514;51.816;-0.026;2023-01-23T11:25:55;103227.91;;;3.70;68.64
69223;BME280;56514;51.816;-0.026;2023-01-23T11:28:48;103234.84;;;3.83;68.46
69223;BME280;56514;51.816;-0.026;2023-01-23T11:31:35;103248.75;;;3.95;68.13
69223;BME280;56514;51.816;-0.026;2023-01-23T11:34:24;103232.25;;;4.02;68.01
69223;BME280;56514;51.816;-0.026;2023-01-23T11:37:33;103229.59;;;4.13;68.10
69223;BME280;56514;51.816;-0.026;2023-01-23T11:40:20;103233.94;;;4.21;68.05
69223;BME280;56514;51.816;-0.026;2023-01-23T11:43:13;103241.75;;;4.30;67.39
69223;BME280;56514;51.816;-0.026;2023-01-23T12:04:53;103239.56;;;5.34;66.18
69223;BME280;56514;51.816;-0.026;2023-01-23T12:11:15;103243.22;;;6.23;64.58
69223;BME280;56514;51.816;-0.026;2023-01-23T12:14:22;103239.16;;;6.75;63.67
69223;BME280;56514;51.816;-0.026;2023-01-23T12:17:13;103236.91;;;7.08;62.58
69223;BME280;56514;51.816;-0.026;2023-01-23T12:20:18;103238.09;;;7.49;61.83
69223;BME280;56514;51.816;-0.026;2023-01-23T12:26:20;103235.53;;;7.97;58.26
69223;BME280;56514;51.816;-0.026;2023-01-23T12:29:29;103237.91;;;7.61;58.39
69223;BME280;56514;51.816;-0.026;2023-01-23T12:36:26;103238.47;;;7.23;59.63
69223;BME280;56514;51.816;-0.026;2023-01-23T12:39:15;103228.63;;;7.39;59.11
69223;BME280;56514;51.816;-0.026;2023-01-23T12:42:17;103228.56;;;7.43;58.93
69223;BME280;56514;51.816;-0.026;2023-01-23T12:48:13;103215.22;;;7.57;57.84
69223;BME280;56514;51.816;-0.026;2023-01-23T12:51:00;103202.59;;;7.78;57.47
69223;BME280;56514;51.816;-0.026;2023-01-23T12:53:50;103188.00;;;8.09;57.83
69223;BME280;56514;51.816;-0.026;2023-01-23T12:56:38;103187.81;;;8.18;56.78
69223;BME280;56514;51.816;-0.026;2023-01-23T13:02:37;103197.47;;;8.19;57.26
69223;BME280;56514;51.816;-0.026;2023-01-23T13:08:54;103208.75;;;8.68;57.54
69223;BME280;56514;51.816;-0.026;2023-01-23T13:12:25;103208.59;;;9.17;56.97
69223;BME280;56514;51.816;-0.026;2023-01-23T13:18:22;103212.78;;;9.61;52.79
69223;BME280;56514;51.816;-0.026;2023-01-23T13:21:11;103213.91;;;9.86;53.88
69223;BME280;56514;51.816;-0.026;2023-01-23T13:36:12;103187.13;;;14.80;41.26
69223;BME280;56514;51.816;-0.026;2023-01-23T13:39:19;103179.81;;;15.21;44.21
69223;BME280;56514;51.816;-0.026;2023-01-23T13:45:32;103183.91;;;14.35;42.81
69223;BME280;56514;51.816;-0.026;2023-01-23T13:48:43;103182.38;;;14.30;41.07
69223;BME280;56514;51.816;-0.026;2023-01-23T13:51:49;103184.13;;;14.31;42.71
69223;BME280;56514;51.816;-0.026;2023-01-23T13:54:34;103180.38;;;14.73;43.38
69223;BME280;56514;51.816;-0.026;2023-01-23T13:57:38;103170.06;;;15.21;42.40
69223;BME280;56514;51.816;-0.026;2023-01-23T14:00:24;103162.34;;;15.87;41.41
69223;BME280;56514;51.816;-0.026;2023-01-23T14:06:30;103169.16;;;17.21;39.91
69223;BME280;56514;51.816;-0.026;2023-01-23T14:09:28;103167.34;;;17.82;38.44
69223;BME280;56514;51.816;-0.026;2023-01-23T14:12:14;103169.66;;;17.88;37.23
69223;BME280;56514;51.816;-0.026;2023-01-23T14:14:58;103173.41;;;17.70;35.85
69223;BME280;56514;51.816;-0.026;2023-01-23T14:21:27;103167.91;;;17.42;37.18
69223;BME280;56514;51.816;-0.026;2023-01-23T14:24:22;103173.03;;;17.46;37.34
69223;BME280;56514;51.816;-0.026;2023-01-23T14:27:09;103166.88;;;17.60;37.32
69223;BME280;56514;51.816;-0.026;2023-01-23T14:30:02;103163.50;;;18.30;35.76
69223;BME280;56514;51.816;-0.026;2023-01-23T14:32:48;103164.50;;;19.11;35.36
69223;BME280;56514;51.816;-0.026;2023-01-23T14:35:34;103155.00;;;19.86;33.83
69223;BME280;56514;51.816;-0.026;2023-01-23T14:38:31;103167.63;;;20.35;32.84
69223;BME280;56514;51.816;-0.026;2023-01-23T14:41:18;103171.38;;;20.94;32.91
69223;BME280;56514;51.816;-0.026;2023-01-23T14:44:06;103161.59;;;21.53;31.76
69223;BME280;56514;51.816;-0.026;2023-01-23T14:46:56;103153.47;;;22.00;30.98
69223;BME280;56514;51.816;-0.026;2023-01-23T14:49:43;103150.84;;;22.44;30.13
69223;BME280;56514;51.816;-0.026;2023-01-23T14:52:30;103159.41;;;22.60;29.74
69223;BME280;56514;51.816;-0.026;2023-01-23T14:55:20;103170.06;;;22.73;29.00
69223;BME280;56514;51.816;-0.026;2023-01-23T14:58:09;103165.13;;;22.89;28.73
69223;BME280;56514;51.816;-0.026;2023-01-23T15:00:57;103163.53;;;22.97;28.35
69223;BME280;56514;51.816;-0.026;2023-01-23T15:03:53;103173.81;;;23.03;28.03
69223;BME280;56514;51.816;-0.026;2023-01-23T15:06:39;103165.75;;;22.92;27.90
69223;BME280;56514;51.816;-0.026;2023-01-23T15:09:32;103161.09;;;22.17;28.70
69223;BME280;56514;51.816;-0.026;2023-01-23T15:12:18;103162.84;;;21.83;28.51
69223;BME280;56514;51.816;-0.026;2023-01-23T15:15:05;103162.97;;;21.11;29.29
69223;BME280;56514;51.816;-0.026;2023-01-23T15:17:51;103155.28;;;20.33;29.72
69223;BME280;56514;51.816;-0.026;2023-01-23T15:20:40;103163.50;;;20.05;30.26
69223;BME280;56514;51.816;-0.026;2023-01-23T15:26:24;103159.66;;;18.90;31.61
69223;BME280;56514;51.816;-0.026;2023-01-23T15:29:17;103165.06;;;18.48;31.80
69223;BME280;56514;51.816;-0.026;2023-01-23T15:32:16;103163.38;;;17.74;33.30
69223;BME280;56514;51.816;-0.026;2023-01-23T15:35:14;103156.56;;;18.55;32.47
69223;BME280;56514;51.816;-0.026;2023-01-23T15:38:02;103157.97;;;19.30;31.28
69223;BME280;56514;51.816;-0.026;2023-01-23T15:40:48;103155.94;;;19.72;30.73
69223;BME280;56514;51.816;-0.026;2023-01-23T15:43:33;103155.00;;;19.86;30.32
69223;BME280;56514;51.816;-0.026;2023-01-23T15:46:18;103157.47;;;19.76;30.39
69223;BME280;56514;51.816;-0.026;2023-01-23T15:49:03;103160.84;;;19.53;30.65
69223;BME280;56514;51.816;-0.026;2023-01-23T15:51:48;103159.81;;;19.15;31.10
69223;BME280;56514;51.816;-0.026;2023-01-23T15:54:35;103157.81;;;17.92;32.28
69223;BME280;56514;51.816;-0.026;2023-01-23T15:57:20;103161.34;;;16.22;33.98
69223;BME280;56514;51.816;-0.026;2023-01-23T16:03:02;103161.78;;;13.11;38.05
69223;BME280;56514;51.816;-0.026;2023-01-23T16:05:47;103158.84;;;12.03;39.67